Hovedside
METAR-TAF:

METAR-TAF

Lufthavner :

Eleftherios Venizelos internasjonale lufthavn

Athen, Hellas

breddegrad: 37-56N, lengdegrad: 023-56E, høyde over havet: 94 m

Gjeldene værobservasjon

Denne rapporten ble laget for 39 minutter siden, klokken 20:50 UTC
Vind 6 kt fra Nord
Temperatur 22°C
Luftfuktighet 53%
Trykk 1019 hPa
Sikt 10 km eller mer
ingen skyer under 1500 m og ingen bygeskyer

METAR: LGAV 192050Z 35006KT CAVOK 22/12 Q1019 NOSIG

Tid: 00:29 (21:29 UTC)

Varsel

Denne rapporten ble laget for 4 timer og 29 minutter siden, klokken 17:00 UTC
Varsel gyldig fra 19. klokken 18 UTC til 20. klokken 18 UTC
Vind 15 kt fra Nord
Sikt 10 km eller mer
Få skyer i en høyde av 2500 ft
Midlertidig
fra 20. klokken 08 UTC til 20. klokken 16 UTC
Vind 20 kt fra Nordøst med vindkast opp mot 30 kt

TAF: LGAV 191700Z 1918/2018 01015KT 9999 FEW025 TEMPO 2008/2016 04020G30KT

Værobservasjoner og værvarsel for over 4000 flyplasser (METAR- og TAF-rapporter).

Tilgjengelige stasjoner er representert av de røde og gule prikkene på kartet.

Hold musepekeren over prikken for å se navnet på stasjonen.

Klikk så for å se værobservasjoner og -varsler.

For å forandre kartet kan du klikke på den grønne knappen med svart kryss for å zoome inn, på den grønne knappen med strek for å zoome ut, eller på de grønne pilene for å se tilstøtende kart.


METAR-TAF: